createdAt,value
2022-10-19T00:00:15.163Z,20.00
2022-10-19T00:01:15.529Z,20.70
2022-10-19T00:02:15.977Z,21.10
2022-10-19T00:03:19.410Z,20.60
2022-10-19T00:04:17.376Z,20.70
2022-10-19T00:05:16.692Z,21.90
2022-10-19T00:06:17.406Z,21.40
2022-10-19T00:07:17.305Z,20.70
2022-10-19T00:08:17.641Z,20.00
2022-10-19T00:09:17.897Z,21.20
2022-10-19T00:10:18.150Z,21.20
2022-10-19T00:11:18.504Z,23.00
2022-10-19T00:12:18.804Z,22.80
2022-10-19T00:13:19.145Z,22.10
2022-10-19T00:14:19.456Z,21.80
2022-10-19T00:15:19.791Z,21.40
2022-10-19T00:16:20.190Z,20.90
2022-10-19T00:17:20.418Z,20.60
2022-10-19T00:18:20.688Z,20.80
2022-10-19T00:19:21.102Z,20.90
2022-10-19T00:20:21.380Z,20.90
2022-10-19T00:21:21.709Z,21.60
2022-10-19T00:22:22.039Z,21.80
2022-10-19T00:23:22.337Z,21.20
2022-10-19T00:24:22.704Z,21.70
2022-10-19T00:25:22.993Z,20.90
2022-10-19T00:26:23.342Z,20.90
2022-10-19T00:27:23.669Z,21.10
2022-10-19T00:28:23.970Z,21.30
2022-10-19T00:29:24.334Z,21.50
2022-10-19T00:30:24.653Z,21.20
2022-10-19T00:31:24.842Z,21.60
2022-10-19T00:32:25.211Z,21.30
2022-10-19T00:33:25.537Z,22.10
2022-10-19T00:34:25.901Z,20.50
2022-10-19T00:35:26.206Z,20.30
2022-10-19T00:36:26.506Z,19.90
2022-10-19T00:37:26.895Z,20.40
2022-10-19T00:38:27.142Z,19.90
2022-10-19T00:39:27.470Z,19.70
2022-10-19T00:40:27.802Z,19.40
2022-10-19T00:41:28.145Z,19.50
2022-10-19T00:42:28.452Z,18.60
2022-10-19T00:43:28.772Z,18.90
2022-10-19T00:44:30.096Z,19.10
2022-10-19T00:45:29.383Z,19.10
2022-10-19T00:46:29.728Z,19.50
2022-10-19T00:47:30.100Z,22.70
2022-10-19T00:48:30.300Z,22.40
2022-10-19T00:49:30.620Z,22.70
2022-10-19T00:50:30.920Z,23.30
2022-10-19T00:51:31.275Z,25.60
2022-10-19T00:52:31.884Z,24.20
2022-10-19T00:53:31.876Z,24.10
2022-10-19T00:54:32.211Z,26.00
2022-10-19T00:55:32.509Z,27.70
2022-10-19T00:56:32.784Z,27.50
2022-10-19T00:57:33.165Z,27.80
2022-10-19T00:58:33.479Z,28.30
2022-10-19T00:59:33.790Z,28.20
2022-10-19T01:00:34.177Z,29.00
2022-10-19T01:01:34.365Z,30.70
2022-10-19T01:02:35.024Z,34.50
2022-10-19T01:03:34.971Z,33.50
2022-10-19T01:04:35.169Z,33.80
2022-10-19T01:05:35.506Z,34.20
2022-10-19T01:06:35.837Z,34.00
2022-10-19T01:07:36.421Z,32.90
2022-10-19T01:08:36.465Z,33.50
2022-10-19T01:09:36.778Z,33.10
2022-10-19T01:10:37.081Z,33.50
2022-10-19T01:11:37.280Z,34.90
2022-10-19T01:12:37.480Z,34.70
2022-10-19T01:13:37.890Z,35.80
2022-10-19T01:14:38.104Z,37.20
2022-10-19T01:15:38.414Z,38.50
2022-10-19T01:16:38.643Z,38.10
2022-10-19T01:17:38.938Z,38.50
2022-10-19T01:18:39.235Z,38.30
2022-10-19T01:19:39.614Z,42.60
2022-10-19T01:20:39.964Z,38.90
2022-10-19T01:21:40.247Z,35.60
2022-10-19T01:22:40.638Z,33.40
2022-10-19T01:23:40.916Z,31.00
2022-10-19T01:24:41.080Z,28.90
2022-10-19T01:25:41.366Z,26.70
2022-10-19T01:26:41.677Z,25.10
2022-10-19T01:27:41.861Z,24.30
2022-10-19T01:28:42.239Z,25.40
2022-10-19T01:29:42.555Z,25.00
2022-10-19T01:30:42.756Z,24.50
2022-10-19T01:31:43.090Z,25.50
2022-10-19T01:32:43.291Z,27.80
2022-10-19T01:33:43.513Z,25.80
2022-10-19T01:34:43.877Z,25.50
2022-10-19T01:35:44.181Z,25.20
2022-10-19T01:36:44.527Z,26.40
2022-10-19T01:37:44.859Z,25.30
2022-10-19T01:38:45.242Z,25.40
2022-10-19T01:39:49.097Z,25.60
2022-10-19T01:40:45.795Z,25.00
2022-10-19T01:41:46.154Z,25.00
2022-10-19T01:42:46.503Z,24.10
2022-10-19T01:43:46.787Z,24.70
2022-10-19T01:44:47.156Z,25.10
2022-10-19T01:45:47.342Z,26.20
2022-10-19T01:46:47.729Z,25.80
2022-10-19T01:47:47.923Z,25.00
2022-10-19T01:48:48.259Z,24.30
2022-10-19T01:49:48.534Z,25.20
2022-10-19T01:50:48.837Z,25.70
2022-10-19T01:51:49.043Z,25.50
2022-10-19T01:52:49.238Z,26.20
2022-10-19T01:53:49.577Z,26.40
2022-10-19T01:54:49.947Z,26.90
2022-10-19T01:55:50.202Z,26.60
2022-10-19T01:56:50.514Z,27.30
2022-10-19T01:57:50.848Z,27.70
2022-10-19T01:58:51.147Z,29.50
2022-10-19T01:59:51.521Z,29.60
2022-10-19T02:00:51.960Z,30.90
2022-10-19T02:01:52.168Z,30.40
2022-10-19T02:02:52.407Z,29.50
2022-10-19T02:03:52.768Z,29.30
2022-10-19T02:04:52.942Z,29.00
2022-10-19T02:05:53.339Z,29.30
2022-10-19T02:06:53.562Z,28.60
2022-10-19T02:07:53.898Z,27.90
2022-10-19T02:08:54.174Z,27.80
2022-10-19T02:09:54.338Z,27.70
2022-10-19T02:10:54.712Z,27.90
2022-10-19T02:11:57.006Z,27.50
2022-10-19T02:12:55.236Z,26.20
2022-10-19T02:13:55.500Z,26.40
2022-10-19T02:14:55.885Z,26.10
2022-10-19T02:15:56.093Z,26.60
2022-10-19T02:16:56.432Z,26.20
2022-10-19T02:17:56.738Z,25.80
2022-10-19T02:18:57.115Z,25.70
2022-10-19T02:19:57.403Z,25.50
2022-10-19T02:20:57.708Z,27.00
2022-10-19T02:21:57.955Z,25.40
2022-10-19T02:22:58.331Z,26.40
2022-10-19T02:23:58.545Z,29.10
2022-10-19T02:24:58.881Z,28.10
2022-10-19T02:25:59.170Z,29.10
2022-10-19T02:26:59.517Z,28.60
2022-10-19T02:27:59.786Z,28.60
2022-10-19T02:28:59.970Z,30.10
2022-10-19T02:30:00.196Z,30.50
2022-10-19T02:31:00.419Z,30.80
2022-10-19T02:32:01.607Z,31.20
2022-10-19T02:33:01.128Z,30.70
2022-10-19T02:34:01.278Z,31.20
2022-10-19T02:35:01.711Z,31.30
2022-10-19T02:36:01.881Z,31.00
2022-10-19T02:37:02.185Z,30.50
2022-10-19T02:38:02.448Z,29.80
2022-10-19T02:39:02.626Z,32.40
2022-10-19T02:40:02.990Z,31.80
2022-10-19T02:41:03.319Z,30.10
2022-10-19T02:42:03.649Z,30.70
2022-10-19T02:43:03.911Z,30.10
2022-10-19T02:44:04.224Z,30.70
2022-10-19T02:45:04.472Z,32.00
2022-10-19T02:46:04.841Z,32.50
2022-10-19T02:47:05.165Z,32.90
2022-10-19T02:48:05.492Z,34.70
2022-10-19T02:49:05.799Z,35.80
2022-10-19T02:50:06.203Z,36.90
2022-10-19T02:51:06.531Z,36.20
2022-10-19T02:52:06.833Z,41.10
2022-10-19T02:53:07.218Z,37.40
2022-10-19T02:54:07.377Z,36.70
2022-10-19T02:55:07.740Z,37.60
2022-10-19T02:56:08.103Z,36.80
2022-10-19T02:57:08.377Z,36.40
2022-10-19T02:58:08.691Z,36.90
2022-10-19T02:59:08.939Z,37.10
2022-10-19T03:00:09.277Z,37.20
2022-10-19T03:01:09.589Z,39.80
2022-10-19T03:02:09.774Z,38.20
2022-10-19T03:03:10.118Z,37.30
2022-10-19T03:04:10.460Z,37.70
2022-10-19T03:05:10.716Z,38.20
2022-10-19T03:06:10.975Z,38.80
2022-10-19T03:07:11.296Z,38.80
2022-10-19T03:08:11.520Z,39.40
2022-10-19T03:09:11.789Z,39.00
2022-10-19T03:10:11.961Z,38.00
2022-10-19T03:11:12.339Z,40.20
2022-10-19T03:12:12.704Z,40.10
2022-10-19T03:13:12.965Z,40.80
2022-10-19T03:14:13.154Z,40.20
2022-10-19T03:15:13.522Z,40.20
2022-10-19T03:16:13.805Z,40.20
2022-10-19T03:17:14.068Z,39.80
2022-10-19T03:18:14.387Z,39.10
2022-10-19T03:19:14.665Z,39.10
2022-10-19T03:20:15.046Z,40.00
2022-10-19T03:21:15.275Z,36.30
2022-10-19T03:22:15.645Z,34.70
2022-10-19T03:23:15.842Z,36.20
2022-10-19T03:24:16.157Z,35.10
2022-10-19T03:25:16.500Z,35.20
2022-10-19T03:26:16.713Z,36.30
2022-10-19T03:27:17.089Z,35.30
2022-10-19T03:28:17.459Z,35.80
2022-10-19T03:29:17.670Z,36.40
2022-10-19T03:30:17.998Z,35.40
2022-10-19T03:31:18.321Z,36.60
2022-10-19T03:32:18.619Z,35.50
2022-10-19T03:33:19.044Z,36.40
2022-10-19T03:34:19.269Z,36.30
2022-10-19T03:35:19.620Z,36.40
2022-10-19T03:36:19.927Z,35.70
2022-10-19T03:37:20.267Z,33.60
2022-10-19T03:38:20.576Z,30.70
2022-10-19T03:39:21.760Z,30.10
2022-10-19T03:40:21.105Z,29.70
2022-10-19T03:41:21.389Z,29.30
2022-10-19T03:42:21.740Z,30.00
2022-10-19T03:43:22.072Z,29.20
2022-10-19T03:44:22.366Z,29.80
2022-10-19T03:45:22.681Z,29.20
2022-10-19T03:46:22.980Z,29.90
2022-10-19T03:47:23.325Z,29.80
2022-10-19T03:48:23.675Z,29.80
2022-10-19T03:49:23.907Z,29.20
2022-10-19T03:50:24.340Z,29.10
2022-10-19T03:51:24.595Z,28.50
2022-10-19T03:52:24.955Z,29.20
2022-10-19T03:53:25.251Z,29.30
2022-10-19T03:54:27.410Z,29.70
2022-10-19T03:55:25.827Z,29.60
2022-10-19T03:56:26.142Z,30.30
2022-10-19T03:57:26.489Z,31.60
2022-10-19T03:58:26.823Z,30.00
2022-10-19T03:59:27.029Z,30.20
2022-10-19T04:00:27.331Z,30.90
2022-10-19T04:01:27.659Z,30.90
2022-10-19T04:02:27.912Z,30.20
2022-10-19T04:03:28.241Z,30.80
2022-10-19T04:04:28.503Z,30.40
2022-10-19T04:05:28.877Z,30.90
2022-10-19T04:06:29.110Z,30.70
2022-10-19T04:07:29.442Z,28.80
2022-10-19T04:08:29.730Z,28.90
2022-10-19T04:09:30.082Z,29.10
2022-10-19T04:10:30.384Z,29.40
2022-10-19T04:11:30.759Z,29.00
2022-10-19T04:12:31.056Z,29.10
2022-10-19T04:13:31.343Z,28.00
2022-10-19T04:14:33.296Z,28.10
2022-10-19T04:15:32.939Z,28.50
2022-10-19T04:16:32.129Z,28.00
2022-10-19T04:17:32.857Z,27.30
2022-10-19T04:18:32.713Z,27.90
2022-10-19T04:19:33.026Z,27.70
2022-10-19T04:20:33.332Z,27.90
2022-10-19T04:21:33.627Z,27.00
2022-10-19T04:22:33.968Z,27.60
2022-10-19T04:23:34.260Z,27.80
2022-10-19T04:24:34.575Z,27.60
2022-10-19T04:25:34.885Z,27.70
2022-10-19T04:26:35.225Z,27.10
2022-10-19T04:27:35.814Z,26.90
2022-10-19T04:28:35.860Z,26.60
2022-10-19T04:29:36.087Z,26.40
2022-10-19T04:30:36.378Z,26.20
2022-10-19T04:31:36.619Z,25.90
2022-10-19T04:32:36.933Z,26.00
2022-10-19T04:33:37.256Z,25.40
2022-10-19T04:34:39.913Z,25.30
2022-10-19T04:35:37.669Z,26.00
2022-10-19T04:36:38.022Z,25.30
2022-10-19T04:37:38.345Z,25.50
2022-10-19T04:38:38.667Z,24.70
2022-10-19T04:39:38.983Z,24.90
2022-10-19T04:40:39.354Z,24.60
2022-10-19T04:41:39.620Z,24.10
2022-10-19T04:42:39.718Z,22.90
2022-10-19T04:43:40.031Z,23.60
2022-10-19T04:44:40.508Z,22.70
2022-10-19T04:45:40.656Z,22.90
2022-10-19T04:46:41.018Z,23.40
2022-10-19T04:47:41.319Z,24.20
2022-10-19T04:48:41.654Z,23.50
2022-10-19T04:49:41.955Z,24.00
2022-10-19T04:50:42.226Z,23.50
2022-10-19T04:51:42.493Z,24.10
2022-10-19T04:52:42.760Z,24.90
2022-10-19T04:53:43.140Z,24.50
2022-10-19T04:54:43.376Z,24.90
2022-10-19T04:55:43.730Z,26.10
2022-10-19T04:56:44.063Z,25.70
2022-10-19T04:57:44.318Z,26.30
2022-10-19T04:58:45.133Z,26.70
2022-10-19T04:59:44.848Z,27.10
2022-10-19T05:00:45.275Z,27.30
2022-10-19T05:01:47.256Z,27.30
2022-10-19T05:02:45.787Z,27.60
2022-10-19T05:03:46.048Z,28.10
2022-10-19T05:04:46.327Z,28.00
2022-10-19T05:05:46.626Z,28.20
2022-10-19T05:06:46.956Z,28.50
2022-10-19T05:07:47.178Z,28.30
2022-10-19T05:08:47.526Z,26.80
2022-10-19T05:09:47.755Z,28.10
2022-10-19T05:10:48.116Z,27.30
2022-10-19T05:11:48.834Z,28.00
2022-10-19T05:12:48.691Z,28.70
2022-10-19T05:13:48.986Z,29.10
2022-10-19T05:14:49.322Z,29.80
2022-10-19T05:15:49.596Z,29.70
2022-10-19T05:16:50.217Z,29.80
2022-10-19T05:17:50.199Z,29.70
2022-10-19T05:18:50.499Z,30.20
2022-10-19T05:19:50.776Z,31.50
2022-10-19T05:20:51.017Z,32.00
2022-10-19T05:21:51.387Z,31.50
2022-10-19T05:22:51.609Z,31.00
2022-10-19T05:23:52.820Z,31.50
2022-10-19T05:24:54.572Z,30.40
2022-10-19T05:25:53.526Z,31.40
2022-10-19T05:26:52.864Z,30.90
2022-10-19T05:27:53.122Z,31.50
2022-10-19T05:28:53.491Z,31.20
2022-10-19T05:29:53.670Z,30.00
2022-10-19T05:30:53.963Z,30.70
2022-10-19T05:31:54.280Z,30.70
2022-10-19T05:32:54.416Z,28.40
2022-10-19T05:33:54.707Z,29.00
2022-10-19T05:34:54.913Z,27.90
2022-10-19T05:35:55.136Z,27.20
2022-10-19T05:36:55.530Z,26.70
2022-10-19T05:37:55.808Z,25.80
2022-10-19T05:38:56.064Z,25.80
2022-10-19T05:39:56.319Z,25.80
2022-10-19T05:40:56.549Z,24.80
2022-10-19T05:41:56.804Z,26.70
2022-10-19T05:42:57.041Z,26.10
2022-10-19T05:43:57.267Z,26.00
2022-10-19T05:44:57.551Z,25.50
2022-10-19T05:45:57.835Z,27.20
2022-10-19T05:46:58.124Z,25.10
2022-10-19T05:47:58.318Z,24.20
2022-10-19T05:48:58.589Z,23.80
2022-10-19T05:49:58.875Z,23.80
2022-10-19T05:50:59.075Z,24.00
2022-10-19T05:51:59.373Z,24.00
2022-10-19T05:52:59.562Z,23.00
2022-10-19T05:53:59.828Z,24.10
2022-10-19T05:55:00.100Z,25.90
2022-10-19T05:56:00.341Z,24.60
2022-10-19T05:57:00.702Z,25.00
2022-10-19T05:58:00.896Z,24.00
2022-10-19T05:59:01.132Z,24.80
2022-10-19T06:00:01.412Z,24.10
2022-10-19T06:01:01.667Z,24.10
2022-10-19T06:02:02.007Z,22.40
2022-10-19T06:03:02.247Z,23.00
2022-10-19T06:04:02.512Z,22.70
2022-10-19T06:05:02.805Z,23.40
2022-10-19T06:06:03.059Z,22.10
2022-10-19T06:07:03.424Z,21.90
2022-10-19T06:08:03.635Z,22.30
2022-10-19T06:09:03.888Z,22.30
2022-10-19T06:10:05.043Z,21.50
2022-10-19T06:11:04.391Z,22.30
2022-10-19T06:12:04.783Z,23.70
2022-10-19T06:13:04.962Z,23.00
2022-10-19T06:14:05.219Z,24.20
2022-10-19T06:15:05.828Z,26.40
2022-10-19T06:16:05.822Z,27.10
2022-10-19T06:17:06.117Z,27.00
2022-10-19T06:18:06.368Z,26.40
2022-10-19T06:19:06.644Z,27.40
2022-10-19T06:20:08.179Z,27.30
2022-10-19T06:21:08.633Z,26.30
2022-10-19T06:22:07.489Z,26.90
2022-10-19T06:23:07.939Z,27.80
2022-10-19T06:24:08.419Z,28.20
2022-10-19T06:25:08.268Z,27.50
2022-10-19T06:26:08.510Z,28.70
2022-10-19T06:27:09.202Z,30.30
2022-10-19T06:28:09.099Z,31.20
2022-10-19T06:29:09.354Z,31.10
2022-10-19T06:30:09.626Z,30.90
2022-10-19T06:31:09.936Z,31.30
2022-10-19T06:32:10.278Z,31.80
2022-10-19T06:33:10.564Z,29.40
2022-10-19T06:34:10.820Z,28.60
2022-10-19T06:35:11.117Z,28.20
2022-10-19T06:36:11.321Z,29.00
2022-10-19T06:37:11.614Z,29.00
2022-10-19T06:38:11.868Z,28.70
2022-10-19T06:39:12.208Z,29.10
2022-10-19T06:40:12.480Z,29.70
2022-10-19T06:41:12.763Z,28.60
2022-10-19T06:42:13.020Z,29.50
2022-10-19T06:43:13.277Z,29.80
2022-10-19T06:44:13.556Z,27.70
2022-10-19T06:45:13.858Z,28.00
2022-10-19T06:46:14.119Z,27.20
2022-10-19T06:47:14.354Z,28.30
2022-10-19T06:48:14.699Z,27.10
2022-10-19T06:49:14.893Z,26.90
2022-10-19T06:50:15.205Z,25.70
2022-10-19T06:51:15.461Z,26.00
2022-10-19T06:52:15.688Z,25.20
2022-10-19T06:53:15.958Z,25.90
2022-10-19T06:54:16.262Z,25.20
2022-10-19T06:55:17.562Z,23.50
2022-10-19T06:56:16.823Z,22.70
2022-10-19T06:57:17.110Z,23.40
2022-10-19T06:58:17.375Z,23.90
2022-10-19T06:59:17.634Z,22.70
2022-10-19T07:00:17.922Z,22.00
2022-10-19T07:01:18.231Z,23.40
2022-10-19T07:02:18.528Z,22.40
2022-10-19T07:03:18.785Z,21.90
2022-10-19T07:04:19.044Z,21.60
2022-10-19T07:05:19.320Z,22.20
2022-10-19T07:06:19.608Z,22.00
2022-10-19T07:07:19.851Z,22.80
2022-10-19T07:08:20.100Z,22.90
2022-10-19T07:09:20.351Z,23.60
2022-10-19T07:10:20.648Z,23.90
2022-10-19T07:11:20.940Z,24.00
2022-10-19T07:12:21.248Z,25.80
2022-10-19T07:13:21.464Z,26.40
2022-10-19T07:14:21.715Z,27.70
2022-10-19T07:15:22.008Z,28.40
2022-10-19T07:16:22.283Z,28.10
2022-10-19T07:17:22.560Z,28.80
2022-10-19T07:18:22.870Z,28.80
2022-10-19T07:19:23.083Z,27.40
2022-10-19T07:20:23.401Z,27.50
2022-10-19T07:21:23.681Z,27.10
2022-10-19T07:22:27.922Z,26.80
2022-10-19T07:23:24.292Z,28.20
2022-10-19T07:24:24.539Z,28.60
2022-10-19T07:25:24.764Z,29.10
2022-10-19T07:26:25.085Z,28.60
2022-10-19T07:27:26.016Z,27.00
2022-10-19T07:28:25.597Z,25.60
2022-10-19T07:29:25.860Z,26.70
2022-10-19T07:30:26.132Z,26.60
2022-10-19T07:31:26.452Z,27.30
2022-10-19T07:32:26.756Z,26.20
2022-10-19T07:33:27.058Z,27.00
2022-10-19T07:34:29.022Z,29.40
2022-10-19T07:35:27.570Z,27.40
2022-10-19T07:36:27.872Z,27.50
2022-10-19T07:37:28.121Z,27.50
2022-10-19T07:38:28.439Z,28.50
2022-10-19T07:39:28.696Z,28.50
2022-10-19T07:40:28.959Z,28.50
2022-10-19T07:41:29.220Z,27.90
2022-10-19T07:42:29.475Z,28.00
2022-10-19T07:43:29.723Z,27.10
2022-10-19T07:44:30.027Z,28.50
2022-10-19T07:45:30.289Z,28.60
2022-10-19T07:46:30.609Z,28.80
2022-10-19T07:47:30.928Z,31.20
2022-10-19T07:48:31.154Z,32.10
2022-10-19T07:49:31.400Z,32.40
2022-10-19T07:50:31.693Z,31.90
2022-10-19T07:51:31.976Z,31.00
2022-10-19T07:52:35.932Z,32.20
2022-10-19T07:53:32.506Z,32.10
2022-10-19T07:54:32.779Z,32.10
2022-10-19T07:55:33.038Z,31.90
2022-10-19T07:56:33.302Z,30.30
2022-10-19T07:57:33.653Z,31.90
2022-10-19T07:58:33.924Z,30.10
2022-10-19T07:59:34.176Z,30.10
2022-10-19T08:00:34.518Z,29.60
2022-10-19T08:01:34.722Z,29.80
2022-10-19T08:02:45.850Z,30.50
2022-10-19T08:04:31.779Z,30.40
2022-10-19T08:04:59.421Z,29.10
2022-10-19T08:05:36.806Z,29.20
2022-10-19T08:06:36.064Z,30.20
2022-10-19T08:07:36.334Z,29.20
2022-10-19T08:08:36.677Z,30.00
2022-10-19T08:09:53.849Z,29.30
2022-10-19T08:10:38.209Z,28.40
2022-10-19T08:11:37.386Z,28.90
2022-10-19T08:12:37.739Z,29.10
2022-10-19T08:13:37.939Z,30.10
2022-10-19T08:14:38.192Z,28.60
2022-10-19T08:15:38.436Z,29.10
2022-10-19T08:16:38.683Z,30.60
2022-10-19T08:17:38.980Z,28.60
2022-10-19T08:18:39.266Z,27.20
2022-10-19T08:19:39.540Z,26.50
2022-10-19T08:20:39.843Z,26.50
2022-10-19T08:21:40.089Z,25.40
2022-10-19T08:22:40.388Z,34.20
2022-10-19T08:23:40.702Z,30.80
2022-10-19T08:24:40.925Z,30.20
2022-10-19T08:25:41.167Z,25.70
2022-10-19T08:26:41.461Z,26.00
2022-10-19T08:27:41.729Z,28.70
2022-10-19T08:28:42.018Z,31.30
2022-10-19T08:29:42.291Z,32.10
2022-10-19T08:30:42.540Z,32.30
2022-10-19T08:31:42.834Z,32.60
2022-10-19T08:32:43.125Z,33.30
2022-10-19T08:33:43.430Z,35.10
2022-10-19T08:34:43.693Z,34.90
2022-10-19T08:35:43.931Z,33.50
2022-10-19T08:36:44.348Z,33.60
2022-10-19T08:37:45.735Z,33.60
2022-10-19T08:38:44.747Z,32.20
2022-10-19T08:39:45.072Z,29.90
2022-10-19T08:40:45.326Z,28.50
2022-10-19T08:41:45.585Z,27.20
2022-10-19T08:42:45.886Z,28.30
2022-10-19T08:43:46.202Z,25.40
2022-10-19T08:44:46.422Z,25.50
2022-10-19T08:45:46.758Z,27.20
2022-10-19T08:46:46.983Z,26.60
2022-10-19T08:47:47.245Z,24.60
2022-10-19T08:48:47.525Z,23.60
2022-10-19T08:49:47.791Z,23.40
2022-10-19T08:50:48.081Z,21.20
2022-10-19T08:51:48.358Z,16.30
2022-10-19T08:52:48.619Z,15.30
2022-10-19T08:53:48.903Z,13.70
2022-10-19T08:54:49.193Z,12.80
2022-10-19T08:55:49.522Z,10.70
2022-10-19T08:56:51.805Z,11.20
2022-10-19T08:57:50.050Z,11.30
2022-10-19T08:58:50.286Z,10.80
2022-10-19T08:59:50.582Z,11.40
2022-10-19T09:00:50.912Z,10.60
2022-10-19T09:01:51.129Z,11.30
2022-10-19T09:02:51.453Z,11.10
2022-10-19T09:03:56.186Z,11.30
2022-10-19T09:04:51.905Z,11.90
2022-10-19T09:05:52.272Z,10.90
2022-10-19T09:06:52.528Z,10.30
2022-10-19T09:07:53.061Z,10.90
2022-10-19T09:08:53.279Z,11.00
2022-10-19T09:09:53.367Z,11.00
2022-10-19T09:10:53.672Z,11.30
2022-10-19T09:11:53.920Z,11.20
2022-10-19T09:12:57.713Z,11.00
2022-10-19T09:14:04.632Z,11.10
2022-10-19T09:14:55.824Z,10.60
2022-10-19T09:15:54.982Z,10.60
2022-10-19T09:16:55.233Z,10.70
2022-10-19T09:17:55.556Z,10.80
2022-10-19T09:18:55.862Z,10.00
2022-10-19T09:19:56.057Z,10.00
2022-10-19T09:20:56.344Z,10.80
2022-10-19T09:21:56.583Z,12.00
2022-10-19T09:22:56.840Z,11.10
2022-10-19T09:23:57.175Z,11.00
2022-10-19T09:24:57.425Z,12.00
2022-10-19T09:25:57.706Z,11.60
2022-10-19T09:26:57.976Z,11.10
2022-10-19T09:27:58.284Z,11.00
2022-10-19T09:28:58.574Z,12.20
2022-10-19T09:29:58.871Z,11.10
2022-10-19T09:30:59.097Z,12.20
2022-10-19T09:32:59.784Z,13.80
2022-10-19T09:34:00.055Z,13.40
2022-10-19T09:35:00.330Z,12.60
2022-10-19T09:36:00.603Z,16.80
2022-10-19T09:37:00.959Z,16.30
2022-10-19T09:38:01.271Z,16.30
2022-10-19T09:39:01.472Z,15.80
2022-10-19T09:40:01.762Z,15.90
2022-10-19T09:41:02.066Z,18.30
2022-10-19T09:42:02.287Z,17.70
2022-10-19T09:43:02.545Z,18.40
2022-10-19T09:44:02.840Z,18.20
2022-10-19T09:45:03.127Z,17.90
2022-10-19T09:46:07.747Z,17.20
2022-10-19T09:47:05.262Z,17.00
2022-10-19T09:48:07.245Z,18.90
2022-10-19T09:49:05.274Z,19.70
2022-10-19T09:50:04.585Z,17.30
2022-10-19T09:51:04.877Z,17.20
2022-10-19T09:52:05.140Z,16.90
2022-10-19T09:53:05.384Z,16.90
2022-10-19T09:54:05.680Z,16.50
2022-10-19T09:55:05.970Z,17.20
2022-10-19T09:56:06.282Z,17.00
2022-10-19T09:57:06.545Z,16.10
2022-10-19T09:58:06.806Z,16.20
2022-10-19T09:59:07.075Z,16.60
2022-10-19T10:00:07.430Z,16.50
2022-10-19T10:01:07.661Z,16.00
2022-10-19T10:02:07.956Z,15.70
2022-10-19T10:03:08.240Z,15.70
2022-10-19T10:04:09.386Z,17.90
2022-10-19T10:05:08.759Z,16.20
2022-10-19T10:06:09.069Z,16.70
2022-10-19T10:07:09.309Z,16.20
2022-10-19T10:08:09.606Z,16.80
2022-10-19T10:09:09.956Z,16.30
2022-10-19T10:10:10.151Z,14.60
2022-10-19T10:11:10.422Z,15.60
2022-10-19T10:12:10.679Z,16.20
2022-10-19T10:13:10.960Z,14.10
2022-10-19T10:14:11.229Z,14.00
2022-10-19T10:15:11.505Z,13.20
2022-10-19T10:16:12.218Z,12.70
2022-10-19T10:17:12.109Z,10.80
2022-10-19T10:18:12.353Z,9.20
2022-10-19T10:19:13.114Z,10.30
2022-10-19T10:20:12.877Z,8.80
2022-10-19T10:21:13.152Z,8.10
2022-10-19T10:22:13.496Z,7.10
2022-10-19T10:23:13.704Z,6.90
2022-10-19T10:24:13.941Z,7.70
2022-10-19T10:25:14.242Z,7.50
2022-10-19T10:26:14.459Z,7.90
2022-10-19T10:27:14.732Z,7.70
2022-10-19T10:28:14.965Z,7.60
2022-10-19T10:29:15.521Z,6.70
2022-10-19T10:30:15.521Z,6.80
2022-10-19T10:31:15.761Z,7.10
2022-10-19T10:32:16.041Z,7.70
2022-10-19T10:33:27.332Z,7.80
2022-10-19T10:34:23.170Z,7.50
2022-10-19T10:35:17.925Z,7.00
2022-10-19T10:36:17.195Z,6.60
2022-10-19T10:37:17.498Z,7.20
2022-10-19T10:38:18.021Z,7.30
2022-10-19T10:39:18.056Z,6.60
2022-10-19T10:40:23.282Z,7.10
2022-10-19T10:41:18.570Z,8.70
2022-10-19T10:42:18.969Z,7.50
2022-10-19T10:43:19.185Z,7.90
2022-10-19T10:44:19.505Z,7.40
2022-10-19T10:45:19.697Z,7.30
2022-10-19T10:46:19.986Z,7.50
2022-10-19T10:47:20.292Z,6.50
2022-10-19T10:48:20.508Z,6.10
2022-10-19T10:49:20.763Z,5.80
2022-10-19T10:50:21.035Z,6.10
2022-10-19T10:51:21.289Z,6.20
2022-10-19T10:52:21.604Z,6.20
2022-10-19T10:53:21.871Z,6.20
2022-10-19T10:54:22.234Z,6.50
2022-10-19T10:55:22.446Z,6.10
2022-10-19T10:56:22.742Z,6.30
2022-10-19T10:58:25.558Z,5.80
2022-10-19T10:59:24.490Z,5.00
2022-10-19T11:00:23.848Z,5.50
2022-10-19T11:01:24.134Z,4.90
2022-10-19T11:03:24.633Z,5.50
2022-10-19T11:04:24.928Z,7.00
2022-10-19T11:05:25.258Z,7.50
2022-10-19T11:06:25.453Z,6.30
2022-10-19T11:07:25.694Z,5.90
2022-10-19T11:08:26.031Z,5.70
2022-10-19T11:09:26.272Z,5.80
2022-10-19T11:10:26.865Z,4.90
2022-10-19T11:11:26.836Z,5.20
2022-10-19T11:12:29.524Z,5.50
2022-10-19T11:13:27.367Z,5.10
2022-10-19T11:14:27.675Z,5.20
2022-10-19T11:15:27.883Z,5.40
2022-10-19T11:16:28.173Z,5.20
2022-10-19T11:17:28.444Z,5.50
2022-10-19T11:18:28.711Z,5.10
2022-10-19T11:19:28.948Z,5.60
2022-10-19T11:20:29.224Z,5.80
2022-10-19T11:21:29.533Z,5.80
2022-10-19T11:22:29.788Z,5.60
2022-10-19T11:23:30.055Z,5.30
2022-10-19T11:25:30.649Z,6.40
2022-10-19T11:26:30.870Z,5.70
2022-10-19T11:27:31.158Z,5.70
2022-10-19T11:28:31.424Z,5.40
2022-10-19T11:29:31.682Z,5.50
2022-10-19T11:30:32.354Z,5.20
2022-10-19T11:31:32.246Z,5.10
2022-10-19T11:32:32.951Z,5.10
2022-10-19T11:33:32.727Z,4.80
2022-10-19T11:34:32.982Z,5.00
2022-10-19T11:35:33.263Z,4.30
2022-10-19T11:36:33.473Z,5.40
2022-10-19T11:37:34.112Z,4.70
2022-10-19T11:38:34.147Z,4.60
2022-10-19T11:39:34.409Z,4.90
2022-10-19T11:40:34.689Z,4.20
2022-10-19T11:41:34.883Z,4.20
2022-10-19T11:42:35.172Z,4.20
2022-10-19T11:43:35.395Z,3.90
2022-10-19T11:44:35.611Z,4.00
2022-10-19T11:45:35.874Z,4.20
2022-10-19T11:46:36.111Z,4.40
2022-10-19T11:47:36.629Z,4.00
2022-10-19T11:48:39.337Z,3.90
2022-10-19T11:49:37.976Z,3.60
2022-10-19T11:50:37.319Z,3.90
2022-10-19T11:51:37.554Z,3.90
2022-10-19T11:52:37.894Z,3.80
2022-10-19T11:53:38.062Z,3.90
2022-10-19T11:54:38.303Z,3.80
2022-10-19T11:55:38.633Z,3.90
2022-10-19T11:56:58.174Z,4.40
2022-10-19T11:57:40.094Z,4.20
2022-10-19T11:58:39.369Z,3.90
2022-10-19T11:59:39.680Z,4.00
2022-10-19T12:00:40.198Z,3.60
2022-10-19T12:01:40.323Z,3.50
2022-10-19T12:02:40.464Z,3.00
2022-10-19T12:03:40.853Z,3.20
2022-10-19T12:04:41.079Z,3.00
2022-10-19T12:05:41.354Z,3.00
2022-10-19T12:06:41.650Z,3.20
2022-10-19T12:07:41.875Z,3.60
2022-10-19T12:08:42.272Z,2.90
2022-10-19T12:09:42.458Z,3.40
2022-10-19T12:10:42.824Z,3.40
2022-10-19T12:11:43.146Z,3.00
2022-10-19T12:12:43.354Z,3.00
2022-10-19T12:13:43.634Z,2.50
2022-10-19T12:14:43.860Z,2.60
2022-10-19T12:15:45.033Z,3.20
2022-10-19T12:16:44.524Z,4.50
2022-10-19T12:17:44.818Z,5.50
2022-10-19T12:18:45.107Z,5.40
2022-10-19T12:19:45.348Z,5.20
2022-10-19T12:20:45.606Z,6.30
2022-10-19T12:21:45.869Z,5.20
2022-10-19T12:22:46.175Z,5.50
2022-10-19T12:23:46.387Z,5.20
2022-10-19T12:24:46.618Z,5.00
2022-10-19T12:25:46.854Z,4.90
2022-10-19T12:26:47.172Z,4.70
2022-10-19T12:27:47.423Z,4.50
2022-10-19T12:28:47.702Z,5.30
2022-10-19T12:29:47.976Z,4.50
2022-10-19T12:30:48.314Z,4.50
2022-10-19T12:31:48.531Z,4.20
2022-10-19T12:32:53.411Z,2.60
2022-10-19T12:33:50.051Z,2.60
2022-10-19T12:34:49.286Z,2.70
2022-10-19T12:35:49.665Z,2.80
2022-10-19T12:36:49.895Z,2.50
2022-10-19T12:37:50.102Z,2.50
2022-10-19T12:38:50.950Z,2.60
2022-10-19T12:39:51.738Z,2.70
2022-10-19T12:40:50.958Z,2.70
2022-10-19T12:41:51.354Z,2.90
2022-10-19T12:42:51.582Z,2.70
2022-10-19T12:43:51.928Z,2.80
2022-10-19T12:44:54.951Z,2.60
2022-10-19T12:45:53.456Z,3.10
2022-10-19T12:46:53.742Z,3.00
2022-10-19T12:47:53.050Z,3.00
2022-10-19T12:48:53.309Z,2.90
2022-10-19T12:49:53.616Z,3.10
2022-10-19T12:50:53.889Z,3.00
2022-10-19T12:51:54.092Z,2.90
2022-10-19T12:52:54.319Z,3.00
2022-10-19T12:53:54.625Z,3.10
2022-10-19T12:54:54.896Z,3.00
2022-10-19T12:55:55.178Z,3.10
2022-10-19T12:56:55.437Z,3.10
2022-10-19T12:57:55.657Z,3.10
2022-10-19T12:58:55.988Z,3.50
2022-10-19T12:59:56.361Z,3.40
2022-10-19T13:00:56.649Z,3.20
2022-10-19T13:01:56.859Z,3.10
2022-10-19T13:02:57.097Z,3.10
2022-10-19T13:03:57.372Z,2.80
2022-10-19T13:04:57.616Z,2.80